Time;durP1;ratioP1;P1;durP2;ratioP2;P2;SDS_P1;SDS_P2;PMS_P1;PMS_P2;Temp;Humidity;BMP_temperature;BMP_pressure;BME280_temperature;BME280_humidity;BME280_pressure;Samples;Min_cycle;Max_cycle;Signal;HPM_P1;HPM_P2
2023/03/16 00:01:02;;;;;;;;;;;;;;;10.39;53.42;98655.22;5072595;28;19918;-86
2023/03/16 00:03:29;;;;;;;;;;;;;;;10.55;53.58;98656.47;5071713;28;19916;-86
2023/03/16 00:05:54;;;;;;;;;;;;;;;10.39;53.47;98655.22;5072384;28;19952;-86
2023/03/16 00:08:19;;;;;;;;;;;;;;;10.29;54.46;98653.78;5071758;28;19971;-86
2023/03/16 00:10:46;;;;;;;;;;;;;;;10.30;54.12;98655.47;5072001;28;20019;-86
2023/03/16 00:13:24;;;;;;;;;;;;;;;10.36;54.36;98655.31;5071837;28;20394;-86
2023/03/16 00:15:50;;;;;;;;;;;;;;;10.38;54.82;98653.53;5071982;28;20007;-86
2023/03/16 00:18:16;;;;;;;;;;;;;;;10.35;54.94;98653.63;5071709;28;20384;-85
2023/03/16 00:20:41;;;;;;;;;;;;;;;10.36;55.24;98652.69;5072001;28;19920;-85
2023/03/16 00:23:06;;;;;;;;;;;;;;;10.34;55.57;98647.44;5072389;28;19935;-85
2023/03/16 00:25:32;;;;;;;;;;;;;;;10.29;55.88;98645.84;5072019;28;19912;-85
2023/03/16 00:27:58;;;;;;;;;;;;;;;10.36;56.49;98648.28;5071074;28;19927;-85
2023/03/16 00:30:23;;;;;;;;;;;;;;;10.31;57.04;98649.31;5071982;28;20294;-85
2023/03/16 00:32:48;;;;;;;;;;;;;;;10.37;57.57;98642.09;5071626;28;20436;-85
2023/03/16 00:35:14;;;;;;;;;;;;;;;10.29;58.00;98649.34;5072178;28;20430;-85
2023/03/16 00:37:41;;;;;;;;;;;;;;;10.35;58.13;98648.34;5071358;28;20397;-85
2023/03/16 00:40:07;;;;;;;;;;;;;;;10.34;58.54;98643.97;5071664;28;20002;-85
2023/03/16 00:42:33;;;;;;;;;;;;;;;10.43;58.57;98651.59;5071570;28;19916;-85
2023/03/16 00:45:00;;;;;;;;;;;;;;;10.36;59.28;98653.56;5071718;28;19919;-85
2023/03/16 00:47:27;;;;;;;;;;;;;;;10.57;58.58;98653.78;5071776;28;19919;-85
2023/03/16 00:49:52;;;;;;;;;;;;;;;10.51;58.84;98654.84;5071221;28;19919;-85
2023/03/16 00:52:18;;;;;;;;;;;;;;;10.54;59.33;98657.38;5070410;28;20310;-85
2023/03/16 00:54:44;;;;;;;;;;;;;;;10.67;59.28;98665.75;5071558;28;19919;-85
2023/03/16 00:57:11;;;;;;;;;;;;;;;10.56;59.39;98670.53;5071239;28;20386;-85
2023/03/16 00:59:37;;;;;;;;;;;;;;;10.55;59.24;98671.41;5070012;28;19916;-85
2023/03/16 01:02:03;;;;;;;;;;;;;;;10.59;59.31;98672.22;5071058;28;20367;-85
2023/03/16 01:04:28;;;;;;;;;;;;;;;10.64;59.57;98679.03;5070908;28;19913;-85
2023/03/16 01:06:54;;;;;;;;;;;;;;;10.78;59.88;98669.84;5071666;28;19918;-84
2023/03/16 01:09:19;;;;;;;;;;;;;;;10.82;59.77;98668.84;5071118;28;20367;-85
2023/03/16 01:11:46;;;;;;;;;;;;;;;10.80;60.00;98671.53;5070613;28;19916;-85
2023/03/16 01:14:12;;;;;;;;;;;;;;;10.80;59.52;98678.56;5070968;28;20382;-85
2023/03/16 01:16:37;;;;;;;;;;;;;;;10.74;60.27;98677.00;5070815;28;19909;-85
2023/03/16 01:19:02;;;;;;;;;;;;;;;10.60;60.76;98679.19;5071053;28;19917;-85
2023/03/16 01:21:28;;;;;;;;;;;;;;;10.75;60.49;98669.03;5070592;28;19917;-88
2023/03/16 01:23:54;;;;;;;;;;;;;;;10.60;61.11;98677.44;5070774;28;20486;-85
2023/03/16 01:26:21;;;;;;;;;;;;;;;10.65;61.23;98683.41;5070377;28;20402;-86
2023/03/16 01:28:46;;;;;;;;;;;;;;;10.77;61.25;98676.03;5071282;28;19913;-85
2023/03/16 01:31:13;;;;;;;;;;;;;;;10.59;61.13;98670.41;5070187;28;19923;-85
2023/03/16 01:33:39;;;;;;;;;;;;;;;10.61;62.16;98675.66;5070765;28;20390;-85
2023/03/16 01:36:05;;;;;;;;;;;;;;;10.54;62.10;98675.00;5070712;28;19919;-86
2023/03/16 01:38:32;;;;;;;;;;;;;;;10.74;61.34;98677.84;5070771;28;20157;-86
2023/03/16 01:40:58;;;;;;;;;;;;;;;10.70;61.50;98678.00;5070993;28;19913;-85
2023/03/16 01:43:25;;;;;;;;;;;;;;;10.57;62.02;98680.16;5070352;28;19918;-85
2023/03/16 01:46:05;;;;;;;;;;;;;;;10.47;62.40;98682.25;5070579;28;19912;-85
2023/03/16 01:48:37;;;;;;;;;;;;;;;10.56;62.69;98683.72;5070585;28;20382;-86
2023/03/16 01:51:06;;;;;;;;;;;;;;;10.31;63.56;98694.13;5070643;28;19916;-86
2023/03/16 01:53:32;;;;;;;;;;;;;;;10.06;62.94;98694.81;5070398;28;19931;-84
2023/03/16 01:56:00;;;;;;;;;;;;;;;9.90;63.17;98699.69;5070573;28;20317;-84
2023/03/16 01:58:26;;;;;;;;;;;;;;;9.89;63.57;98702.34;5069844;28;20002;-86
2023/03/16 02:00:52;;;;;;;;;;;;;;;9.83;63.10;98704.22;5070834;28;19982;-85
2023/03/16 02:03:19;;;;;;;;;;;;;;;9.75;63.89;98708.00;5070463;28;20015;-86
2023/03/16 02:05:44;;;;;;;;;;;;;;;9.80;63.42;98706.97;5070789;28;19920;-84
2023/03/16 02:08:11;;;;;;;;;;;;;;;9.82;63.76;98704.28;5070325;28;19913;-85
2023/03/16 02:10:37;;;;;;;;;;;;;;;9.89;63.30;98705.84;5069882;28;19994;-85
2023/03/16 02:13:03;;;;;;;;;;;;;;;9.65;63.21;98710.88;5072049;28;20305;-85
2023/03/16 02:15:28;;;;;;;;;;;;;;;9.67;63.92;98713.47;5074743;28;19957;-85
2023/03/16 02:17:56;;;;;;;;;;;;;;;9.48;63.49;98713.97;5074398;28;19912;-85
2023/03/16 02:20:24;;;;;;;;;;;;;;;9.36;64.04;98713.41;5074528;28;20471;-84
2023/03/16 02:22:54;;;;;;;;;;;;;;;9.44;63.75;98716.72;5074459;28;19917;-85
2023/03/16 02:25:22;;;;;;;;;;;;;;;9.44;63.55;98722.00;5074214;28;19951;-85
2023/03/16 02:27:54;;;;;;;;;;;;;;;9.51;63.36;98723.53;5074420;28;20290;-86
2023/03/16 02:30:20;;;;;;;;;;;;;;;9.44;63.32;98729.88;5073963;28;19995;-85
2023/03/16 02:32:47;;;;;;;;;;;;;;;9.58;63.48;98719.84;5074060;28;19951;-85
2023/03/16 02:35:13;;;;;;;;;;;;;;;9.50;63.66;98725.31;5074262;28;20451;-86
2023/03/16 02:37:38;;;;;;;;;;;;;;;9.52;64.41;98734.94;5074024;28;19999;-85
2023/03/16 02:40:16;;;;;;;;;;;;;;;9.35;64.23;98730.97;5073967;28;19912;-86
2023/03/16 02:42:41;;;;;;;;;;;;;;;9.17;64.31;98736.69;5074217;28;19974;-86
2023/03/16 02:45:07;;;;;;;;;;;;;;;9.06;63.90;98740.44;5073893;28;19958;-84
2023/03/16 02:47:35;;;;;;;;;;;;;;;9.16;63.85;98732.31;5074517;28;20009;-85
2023/03/16 02:50:05;;;;;;;;;;;;;;;9.16;63.20;98756.88;5073991;28;19912;-85
2023/03/16 02:52:30;;;;;;;;;;;;;;;9.07;62.60;98743.97;5073541;28;20401;-83
2023/03/16 02:54:55;;;;;;;;;;;;;;;9.18;62.42;98741.91;5073097;28;19924;-84
2023/03/16 02:57:21;;;;;;;;;;;;;;;9.10;62.21;98743.88;5073599;28;20457;-84
2023/03/16 02:59:46;;;;;;;;;;;;;;;9.10;62.17;98751.78;5073882;28;19912;-84
2023/03/16 03:02:12;;;;;;;;;;;;;;;9.00;62.55;98751.09;5073852;28;19916;-84
2023/03/16 03:04:37;;;;;;;;;;;;;;;8.98;62.06;98759.97;5073572;28;20313;-85
2023/03/16 03:07:03;;;;;;;;;;;;;;;8.99;62.21;98769.56;5073051;28;19962;-83
2023/03/16 03:09:31;;;;;;;;;;;;;;;9.09;61.96;98771.94;5073201;28;20323;-84
2023/03/16 03:11:56;;;;;;;;;;;;;;;8.80;62.12;98772.63;5073391;28;19916;-83
2023/03/16 03:14:22;;;;;;;;;;;;;;;8.99;61.59;98772.19;5073699;28;20283;-82
2023/03/16 03:16:47;;;;;;;;;;;;;;;8.84;61.52;98778.69;5073180;28;20416;-82
2023/03/16 03:19:13;;;;;;;;;;;;;;;8.72;62.85;98788.56;5073023;28;20371;-83
2023/03/16 03:21:39;;;;;;;;;;;;;;;8.74;61.89;98784.16;5072943;28;19917;-84
2023/03/16 03:24:04;;;;;;;;;;;;;;;8.78;61.79;98782.31;5072972;28;19912;-83
2023/03/16 03:26:30;;;;;;;;;;;;;;;8.71;61.59;98797.38;5072834;28;19916;-89
2023/03/16 03:28:55;;;;;;;;;;;;;;;8.54;62.29;98791.59;5073748;28;19916;-83
2023/03/16 03:31:21;;;;;;;;;;;;;;;8.63;62.31;98801.06;5072662;28;19926;-82
2023/03/16 03:33:46;;;;;;;;;;;;;;;8.57;62.08;98804.66;5073289;28;19918;-84
2023/03/16 03:36:12;;;;;;;;;;;;;;;8.60;62.52;98810.75;5073311;28;19912;-83
2023/03/16 03:38:38;;;;;;;;;;;;;;;8.50;62.29;98811.81;5072835;28;20342;-84
2023/03/16 03:41:03;;;;;;;;;;;;;;;8.52;61.96;98809.16;5072983;28;19917;-83
2023/03/16 03:43:29;;;;;;;;;;;;;;;8.36;62.41;98812.06;5072969;28;19973;-83
2023/03/16 03:45:59;;;;;;;;;;;;;;;8.60;61.82;98817.75;5088393;28;20037;-84
2023/03/16 03:48:25;;;;;;;;;;;;;;;8.42;62.08;98822.47;5072357;28;20394;-83
2023/03/16 03:50:50;;;;;;;;;;;;;;;8.44;61.75;98813.72;5072572;28;19918;-85
2023/03/16 03:53:15;;;;;;;;;;;;;;;8.37;61.74;98812.91;5072361;28;19966;-84
2023/03/16 03:55:41;;;;;;;;;;;;;;;8.27;61.77;98809.63;5073522;28;20378;-84
2023/03/16 03:58:06;;;;;;;;;;;;;;;8.30;61.84;98825.31;5072942;28;20251;-84
2023/03/16 04:00:31;;;;;;;;;;;;;;;8.38;61.71;98818.16;5072278;28;20431;-83
2023/03/16 04:02:56;;;;;;;;;;;;;;;8.46;62.09;98815.41;5072306;28;20775;-83
2023/03/16 04:05:26;;;;;;;;;;;;;;;8.30;62.25;98824.47;5072496;28;19973;-82
2023/03/16 04:07:53;;;;;;;;;;;;;;;8.31;62.14;98828.81;5072761;28;19919;-84
2023/03/16 04:10:19;;;;;;;;;;;;;;;8.24;62.13;98828.94;5072837;28;19916;-82
2023/03/16 04:12:45;;;;;;;;;;;;;;;8.26;61.95;98834.16;5072345;28;19912;-82
2023/03/16 04:15:11;;;;;;;;;;;;;;;8.17;62.21;98836.97;5069590;28;19916;-84
2023/03/16 04:17:36;;;;;;;;;;;;;;;8.07;62.46;98836.28;5072659;28;19916;-81
2023/03/16 04:20:05;;;;;;;;;;;;;;;7.99;62.93;98846.91;5073548;28;19912;-80
2023/03/16 04:22:30;;;;;;;;;;;;;;;8.05;62.34;98843.31;5072557;28;19952;-81
2023/03/16 04:24:56;;;;;;;;;;;;;;;7.93;62.62;98856.69;5071981;28;19956;-81
2023/03/16 04:27:21;;;;;;;;;;;;;;;7.94;62.91;98848.78;5070298;28;19942;-80
2023/03/16 04:29:46;;;;;;;;;;;;;;;7.84;63.40;98855.06;5072033;28;19912;-84
2023/03/16 04:32:12;;;;;;;;;;;;;;;7.89;62.94;98864.63;5071835;28;20015;-84
2023/03/16 04:34:40;;;;;;;;;;;;;;;7.86;62.44;98863.78;5070464;28;19916;-84
2023/03/16 04:37:05;;;;;;;;;;;;;;;7.88;62.79;98869.88;5071540;28;20366;-84
2023/03/16 04:39:31;;;;;;;;;;;;;;;7.74;63.05;98883.25;5070811;28;19962;-82
2023/03/16 04:41:56;;;;;;;;;;;;;;;7.84;62.90;98882.19;5070910;28;19923;-81
2023/03/16 04:44:21;;;;;;;;;;;;;;;7.91;62.75;98885.59;5071505;28;20451;-81
2023/03/16 04:46:47;;;;;;;;;;;;;;;7.94;63.10;98895.16;5070590;28;20390;-87
2023/03/16 04:49:12;;;;;;;;;;;;;;;7.97;62.70;98887.22;5069106;28;19924;-84
2023/03/16 04:51:39;;;;;;;;;;;;;;;7.82;62.96;98899.72;5071626;28;19919;-83
2023/03/16 04:54:04;;;;;;;;;;;;;;;7.92;62.96;98896.94;5070910;28;20294;-83
2023/03/16 04:56:30;;;;;;;;;;;;;;;7.81;63.53;98894.50;5071396;28;19916;-83
2023/03/16 04:58:58;;;;;;;;;;;;;;;7.80;63.27;98904.16;5070899;28;19975;-84
2023/03/16 05:01:23;;;;;;;;;;;;;;;7.69;62.98;98904.31;5069941;28;19912;-87
2023/03/16 05:03:49;;;;;;;;;;;;;;;7.67;63.88;98911.34;5069709;28;20007;-86
2023/03/16 05:06:14;;;;;;;;;;;;;;;7.92;63.38;98917.97;5071049;28;19920;-84
2023/03/16 05:08:39;;;;;;;;;;;;;;;7.90;63.21;98925.88;5070818;28;19912;-83
2023/03/16 05:11:05;;;;;;;;;;;;;;;7.96;62.46;98928.38;5070737;28;19916;-86
2023/03/16 05:13:30;;;;;;;;;;;;;;;7.90;62.71;98925.88;5070107;28;20307;-85
2023/03/16 05:15:55;;;;;;;;;;;;;;;7.85;62.35;98930.34;5070680;28;19916;-86
2023/03/16 05:18:21;;;;;;;;;;;;;;;7.92;62.43;98938.97;5070937;28;19916;-87
2023/03/16 05:20:50;;;;;;;;;;;;;;;7.89;62.44;98937.25;5070011;28;19920;-87
2023/03/16 05:23:15;;;;;;;;;;;;;;;7.84;62.40;98946.97;5070724;28;19939;-89
2023/03/16 05:25:41;;;;;;;;;;;;;;;7.83;61.83;98953.09;5070882;28;19916;-88
2023/03/16 05:28:06;;;;;;;;;;;;;;;7.78;61.31;98960.19;5075691;28;19912;-87
2023/03/16 05:30:32;;;;;;;;;;;;;;;7.95;60.72;98952.06;5074781;28;19924;-85
2023/03/16 05:32:57;;;;;;;;;;;;;;;8.06;60.59;98964.13;5073779;28;19912;-86
2023/03/16 05:35:23;;;;;;;;;;;;;;;7.97;60.67;98958.13;5072526;28;19917;-84
2023/03/16 05:37:48;;;;;;;;;;;;;;;7.86;60.40;98953.06;5073330;28;19963;-85
2023/03/16 05:40:17;;;;;;;;;;;;;;;7.80;60.52;98968.91;5072668;28;19913;-89
2023/03/16 05:42:43;;;;;;;;;;;;;;;7.78;60.21;98966.31;5064425;28;19923;-86
2023/03/16 05:45:09;;;;;;;;;;;;;;;7.79;60.55;98972.44;5073189;28;19998;-86
2023/03/16 05:47:36;;;;;;;;;;;;;;;7.74;59.49;98972.50;5073768;28;19912;-86
2023/03/16 05:50:02;;;;;;;;;;;;;;;7.79;59.64;98977.69;5073073;28;19920;-87
2023/03/16 05:52:27;;;;;;;;;;;;;;;7.83;59.88;98980.25;5074281;28;19919;-87
2023/03/16 05:54:53;;;;;;;;;;;;;;;7.77;59.67;98982.97;5071672;28;19912;-87
2023/03/16 05:57:18;;;;;;;;;;;;;;;7.70;59.14;98976.06;5071741;28;19912;-87
2023/03/16 05:59:43;;;;;;;;;;;;;;;7.76;59.04;98988.25;5071627;28;20360;-89
2023/03/16 06:02:09;;;;;;;;;;;;;;;7.69;59.12;98993.59;5068048;28;19963;-88
2023/03/16 06:04:35;;;;;;;;;;;;;;;7.84;58.34;98999.50;5070147;28;19913;-88
2023/03/16 06:07:01;;;;;;;;;;;;;;;7.76;58.04;98991.72;5065084;28;19916;-87
2023/03/16 06:09:26;;;;;;;;;;;;;;;7.71;58.61;99004.91;5066938;28;19927;-88
2023/03/16 06:11:51;;;;;;;;;;;;;;;7.72;58.09;99005.78;5069611;28;19916;-87
2023/03/16 06:14:16;;;;;;;;;;;;;;;7.88;57.50;99017.81;5068981;28;19916;-88
2023/03/16 06:16:42;;;;;;;;;;;;;;;7.66;57.68;99017.25;5070466;28;19945;-90
2023/03/16 06:19:07;;;;;;;;;;;;;;;7.75;58.65;99024.13;5070364;28;20447;-91
2023/03/16 06:21:32;;;;;;;;;;;;;;;7.66;57.82;99019.88;5068830;28;19917;-91
2023/03/16 06:23:58;;;;;;;;;;;;;;;7.81;57.59;99031.91;5069245;28;20384;-91
2023/03/16 06:26:23;;;;;;;;;;;;;;;7.73;57.25;99028.53;5067471;28;20287;-89
2023/03/16 06:28:48;;;;;;;;;;;;;;;7.83;57.19;99027.50;5069815;28;20391;-89
2023/03/16 06:31:14;;;;;;;;;;;;;;;7.70;57.59;99033.81;5084214;28;20321;-91
2023/03/16 06:33:40;;;;;;;;;;;;;;;7.83;57.47;99040.66;5071236;28;19920;-90
2023/03/16 06:36:05;;;;;;;;;;;;;;;7.92;57.22;99037.00;5070718;28;19939;-89
2023/03/16 06:38:31;;;;;;;;;;;;;;;7.87;57.83;99039.69;5070380;28;20425;-91
2023/03/16 06:40:56;;;;;;;;;;;;;;;7.99;56.87;99041.28;5070517;28;19916;-86
2023/03/16 06:43:22;;;;;;;;;;;;;;;7.98;56.13;99046.56;5070840;28;19912;-89
2023/03/16 06:45:47;;;;;;;;;;;;;;;7.82;56.44;99048.53;5069478;28;19913;-87
2023/03/16 06:48:12;;;;;;;;;;;;;;;7.78;57.00;99050.31;5070929;28;19913;-86
2023/03/16 06:50:38;;;;;;;;;;;;;;;7.65;56.91;99059.28;5070391;28;19917;-87
2023/03/16 06:53:03;;;;;;;;;;;;;;;7.73;56.83;99061.81;5069913;28;19916;-87
2023/03/16 06:55:28;;;;;;;;;;;;;;;7.88;56.58;99056.34;5070217;28;20390;-88
2023/03/16 06:57:54;;;;;;;;;;;;;;;7.78;56.01;99058.19;5070634;28;20374;-86
2023/03/16 07:00:20;;;;;;;;;;;;;;;7.74;56.83;99061.78;5074023;28;19976;-88
2023/03/16 07:02:45;;;;;;;;;;;;;;;7.87;55.87;99068.56;5073335;28;19952;-88
2023/03/16 07:05:13;;;;;;;;;;;;;;;8.01;55.61;99076.25;5073652;28;19923;-90
2023/03/16 07:07:41;;;;;;;;;;;;;;;7.92;56.23;99079.00;5073630;28;19912;-92
2023/03/16 07:10:07;;;;;;;;;;;;;;;7.78;55.76;99071.34;5073614;28;20405;-89
2023/03/16 07:12:32;;;;;;;;;;;;;;;7.81;56.14;99079.16;5073136;28;19912;-89
2023/03/16 07:14:57;;;;;;;;;;;;;;;7.82;55.83;99083.53;5073737;28;19919;-89
2023/03/16 07:17:23;;;;;;;;;;;;;;;7.57;56.09;99087.38;5073690;28;19908;-88
2023/03/16 07:19:48;;;;;;;;;;;;;;;7.58;56.42;99097.84;5073722;28;19935;-88
2023/03/16 07:22:13;;;;;;;;;;;;;;;7.73;56.35;99099.41;5073956;28;20413;-90
2023/03/16 07:24:39;;;;;;;;;;;;;;;7.77;55.89;99100.22;5073520;28;19912;-89
2023/03/16 07:27:05;;;;;;;;;;;;;;;7.61;55.94;99091.69;5073340;28;20024;-91
2023/03/16 07:29:30;;;;;;;;;;;;;;;7.76;55.67;99104.63;5073171;28;20002;-90
2023/03/16 07:31:56;;;;;;;;;;;;;;;7.56;55.59;99110.13;5073225;28;19908;-89
2023/03/16 07:34:21;;;;;;;;;;;;;;;7.83;55.98;99100.16;5073655;28;19912;-90
2023/03/16 07:36:51;;;;;;;;;;;;;;;7.84;56.47;99108.00;5073388;28;19915;-91
2023/03/16 07:39:16;;;;;;;;;;;;;;;7.76;55.54;99107.25;5073083;28;20428;-90
2023/03/16 07:41:42;;;;;;;;;;;;;;;7.66;55.75;99103.88;5073270;28;19912;-90
2023/03/16 07:44:08;;;;;;;;;;;;;;;7.74;56.10;99102.91;5073334;28;19916;-89
2023/03/16 07:46:34;;;;;;;;;;;;;;;7.94;55.57;99105.25;5073013;28;19970;-90
2023/03/16 07:49:00;;;;;;;;;;;;;;;7.80;55.68;99098.47;5073302;28;19913;-88
2023/03/16 07:51:25;;;;;;;;;;;;;;;7.91;55.37;99103.56;5073357;28;19912;-89
2023/03/16 07:53:50;;;;;;;;;;;;;;;7.79;55.11;99106.34;5071829;28;19970;-87
2023/03/16 07:56:16;;;;;;;;;;;;;;;7.89;55.81;99113.19;5073430;28;19912;-88
2023/03/16 07:58:41;;;;;;;;;;;;;;;7.97;54.75;99111.38;5072841;28;19916;-89
2023/03/16 08:01:06;;;;;;;;;;;;;;;7.77;55.66;99113.34;5072688;28;20074;-89
2023/03/16 08:03:32;;;;;;;;;;;;;;;7.88;54.83;99112.34;5073417;28;19984;-87
2023/03/16 08:05:57;;;;;;;;;;;;;;;7.93;55.17;99111.41;5072946;28;20003;-87
2023/03/16 08:08:22;;;;;;;;;;;;;;;7.96;54.57;99125.38;5072950;28;19912;-88
2023/03/16 08:10:48;;;;;;;;;;;;;;;8.11;54.68;99107.66;5071792;28;19916;-91
2023/03/16 08:13:14;;;;;;;;;;;;;;;8.10;54.57;99124.31;5072481;28;19982;-87
2023/03/16 08:15:39;;;;;;;;;;;;;;;8.20;54.90;99129.44;5071964;28;20394;-89
2023/03/16 08:18:06;;;;;;;;;;;;;;;8.36;54.79;99131.81;5071924;28;19947;-88
2023/03/16 08:20:31;;;;;;;;;;;;;;;8.45;54.59;99121.22;5071695;28;20007;-88
2023/03/16 08:22:56;;;;;;;;;;;;;;;8.25;54.20;99124.09;5072467;28;20421;-88
2023/03/16 08:25:22;;;;;;;;;;;;;;;8.39;54.57;99143.16;5072584;28;19912;-87
2023/03/16 08:27:47;;;;;;;;;;;;;;;8.36;54.57;99131.81;5072319;28;19912;-89
2023/03/16 08:30:14;;;;;;;;;;;;;;;8.45;54.54;99144.88;5075701;28;19916;-88
2023/03/16 08:32:40;;;;;;;;;;;;;;;8.37;55.01;99142.31;5077872;28;19935;-89
2023/03/16 08:35:08;;;;;;;;;;;;;;;8.39;54.56;99153.66;5073898;28;19912;-89
2023/03/16 08:37:34;;;;;;;;;;;;;;;8.49;54.60;99156.19;5087755;28;19904;-88
2023/03/16 08:39:59;;;;;;;;;;;;;;;8.51;53.86;99154.41;5097817;28;19927;-90
2023/03/16 08:42:25;;;;;;;;;;;;;;;8.52;54.58;99158.78;5089276;28;19916;-89
2023/03/16 08:44:53;;;;;;;;;;;;;;;8.56;54.45;99161.34;5071187;28;19919;-88
2023/03/16 08:47:19;;;;;;;;;;;;;;;8.65;54.32;99165.59;5071117;28;19912;-88
2023/03/16 08:49:44;;;;;;;;;;;;;;;8.72;53.57;99163.72;5087231;28;19913;-89
2023/03/16 08:52:11;;;;;;;;;;;;;;;8.69;53.70;99162.00;5071138;28;20408;-88
2023/03/16 08:54:37;;;;;;;;;;;;;;;8.96;53.28;99168.59;5070808;28;20390;-88
2023/03/16 08:57:03;;;;;;;;;;;;;;;8.75;52.87;99167.16;5071133;28;19912;-89
2023/03/16 08:59:28;;;;;;;;;;;;;;;8.60;53.35;99168.28;5070724;28;19931;-90
2023/03/16 09:01:53;;;;;;;;;;;;;;;8.56;53.27;99166.59;5069649;28;19913;-92
2023/03/16 09:04:20;;;;;;;;;;;;;;;8.66;53.38;99172.56;5070755;28;19912;-94
2023/03/16 09:06:46;;;;;;;;;;;;;;;8.61;53.88;99177.03;5069495;28;19919;-94
2023/03/16 09:09:12;;;;;;;;;;;;;;;8.92;53.85;99163.41;5069567;28;19947;-92
2023/03/16 09:11:37;;;;;;;;;;;;;;;9.04;53.51;99172.84;5070455;28;19943;-89
2023/03/16 09:14:03;;;;;;;;;;;;;;;9.17;52.24;99166.47;5070929;28;19923;-93
2023/03/16 09:16:30;;;;;;;;;;;;;;;9.03;52.46;99176.38;5070603;28;19934;-93
2023/03/16 09:18:57;;;;;;;;;;;;;;;9.02;52.35;99166.72;5086874;28;20382;-88
2023/03/16 09:21:22;;;;;;;;;;;;;;;9.04;52.84;99172.84;5069706;28;19920;-85
2023/03/16 09:23:48;;;;;;;;;;;;;;;8.97;52.00;99153.66;5071021;28;20367;-90
2023/03/16 09:26:14;;;;;;;;;;;;;;;9.08;51.77;99158.72;5070963;28;19912;-88
2023/03/16 09:28:41;;;;;;;;;;;;;;;9.12;51.57;99150.75;5071589;28;19916;-90
2023/03/16 09:31:07;;;;;;;;;;;;;;;9.12;52.10;99160.44;5071278;28;19967;-89
2023/03/16 09:33:34;;;;;;;;;;;;;;;9.13;51.97;99160.41;5071277;28;19912;-88
2023/03/16 09:36:00;;;;;;;;;;;;;;;9.37;51.32;99168.75;5071485;28;19912;-89
2023/03/16 09:38:26;;;;;;;;;;;;;;;9.42;51.67;99164.28;5071099;28;19913;-88
2023/03/16 09:40:56;;;;;;;;;;;;;;;9.39;50.53;99174.88;5070742;28;19973;-88
2023/03/16 09:43:24;;;;;;;;;;;;;;;9.47;50.13;99170.31;5071055;28;19976;-90
2023/03/16 09:45:56;;;;;;;;;;;;;;;9.21;50.31;99173.41;5071102;28;19935;-90
2023/03/16 09:48:23;;;;;;;;;;;;;;;9.48;50.17;99171.16;5070905;28;19916;-87
2023/03/16 09:50:49;;;;;;;;;;;;;;;9.50;50.20;99172.03;5071242;28;19916;-88
2023/03/16 09:53:30;;;;;;;;;;;;;;;9.49;50.38;99176.41;5068849;28;19920;-87
2023/03/16 09:56:07;;;;;;;;;;;;;;;9.84;48.91;99179.28;5069885;28;19912;-92
2023/03/16 09:58:33;;;;;;;;;;;;;;;10.15;49.24;99184.75;5068601;28;19969;-91
2023/03/16 10:01:06;;;;;;;;;;;;;;;10.20;48.20;99174.97;5064322;28;19920;-86
2023/03/16 10:03:31;;;;;;;;;;;;;;;10.20;47.74;99168.84;5067564;28;20302;-89
2023/03/16 10:06:01;;;;;;;;;;;;;;;10.26;48.13;99167.84;5069799;28;19920;-90
2023/03/16 10:08:32;;;;;;;;;;;;;;;10.42;47.69;99177.16;5067964;28;20777;-91
2023/03/16 10:11:16;;;;;;;;;;;;;;;10.53;46.96;99177.81;5069649;28;19919;-90
2023/03/16 10:13:53;;;;;;;;;;;;;;;10.41;46.91;99172.81;5069737;28;19920;-85
2023/03/16 10:16:22;;;;;;;;;;;;;;;10.43;47.22;99164.88;5066000;28;19923;-87
2023/03/16 10:18:49;;;;;;;;;;;;;;;10.56;46.69;99168.94;5062545;28;20382;-86
2023/03/16 10:21:17;;;;;;;;;;;;;;;10.55;46.79;99159.28;5056000;28;19939;-85
2023/03/16 10:23:43;;;;;;;;;;;;;;;10.52;46.40;99169.94;5070029;28;19939;-85
2023/03/16 10:26:12;;;;;;;;;;;;;;;10.72;46.18;99172.97;5065062;28;19916;-84
2023/03/16 10:28:38;;;;;;;;;;;;;;;10.61;46.14;99164.41;5062681;28;19924;-84
2023/03/16 10:31:03;;;;;;;;;;;;;;;10.89;46.76;99163.75;5069329;28;19919;-86
2023/03/16 10:33:31;;;;;;;;;;;;;;;11.04;45.66;99176.56;5070474;28;20444;-88
2023/03/16 10:36:19;;;;;;;;;;;;;;;10.87;47.24;99171.69;5073473;28;19916;-88
2023/03/16 10:38:48;;;;;;;;;;;;;;;10.81;46.38;99178.91;5070149;28;19921;-86
2023/03/16 10:41:22;;;;;;;;;;;;;;;10.91;45.68;99170.72;5066566;28;20044;-89
2023/03/16 10:43:50;;;;;;;;;;;;;;;11.19;45.71;99172.69;5088816;28;19987;-87
2023/03/16 10:46:16;;;;;;;;;;;;;;;11.13;46.41;99172.84;5072714;28;19916;-84
2023/03/16 10:48:49;;;;;;;;;;;;;;;11.19;44.85;99158.63;5072702;28;19924;-85
2023/03/16 10:51:16;;;;;;;;;;;;;;;10.94;44.55;99169.81;5072947;28;19912;-85
2023/03/16 10:53:43;;;;;;;;;;;;;;;10.98;45.19;99171.44;5072849;28;19917;-86
2023/03/16 10:56:13;;;;;;;;;;;;;;;11.22;45.24;99164.69;5073049;28;19916;-85
2023/03/16 10:58:41;;;;;;;;;;;;;;;11.55;44.43;99162.03;5073080;28;20030;-85
2023/03/16 11:01:10;;;;;;;;;;;;;;;11.64;43.97;99153.00;5073270;28;19913;-85
2023/03/16 11:03:40;;;;;;;;;;;;;;;12.04;44.15;99151.03;5073046;28;19912;-87
2023/03/16 11:06:07;;;;;;;;;;;;;;;11.80;44.24;99145.50;5072847;28;20456;-88
2023/03/16 11:08:36;;;;;;;;;;;;;;;11.89;44.40;99145.22;5072670;28;20381;-87
2023/03/16 11:11:15;;;;;;;;;;;;;;;11.83;42.96;99148.94;5072987;28;19963;-87
2023/03/16 11:13:47;;;;;;;;;;;;;;;11.62;44.05;99155.69;5073293;28;19919;-86
2023/03/16 11:16:20;;;;;;;;;;;;;;;11.66;44.44;99153.81;5072481;28;19916;-84
2023/03/16 11:18:48;;;;;;;;;;;;;;;11.61;43.40;99155.72;5073779;28;19916;-85
2023/03/16 11:21:31;;;;;;;;;;;;;;;11.32;43.41;99164.44;5073617;28;20352;-84
2023/03/16 11:23:57;;;;;;;;;;;;;;;11.43;43.34;99157.09;5073255;28;19916;-85
2023/03/16 11:26:33;;;;;;;;;;;;;;;11.77;43.49;99149.09;5073382;28;19970;-90
2023/03/16 11:29:09;;;;;;;;;;;;;;;11.80;42.41;99153.41;5073384;28;19944;-84
2023/03/16 11:31:44;;;;;;;;;;;;;;;11.93;43.26;99151.34;5073285;28;20354;-86
2023/03/16 11:34:22;;;;;;;;;;;;;;;11.80;42.69;99162.22;5073495;28;19913;-84
2023/03/16 11:36:49;;;;;;;;;;;;;;;11.62;43.32;99152.19;5073677;28;19917;-85
2023/03/16 11:39:22;;;;;;;;;;;;;;;11.58;43.42;99145.25;5073456;28;19916;-84
2023/03/16 11:42:06;;;;;;;;;;;;;;;11.64;42.89;99147.72;5073267;28;20441;-86
2023/03/16 11:44:43;;;;;;;;;;;;;;;11.83;43.13;99162.16;5073163;28;19924;-85
2023/03/16 11:47:27;;;;;;;;;;;;;;;11.50;43.52;99152.53;5072876;28;19916;-85
2023/03/16 11:49:55;;;;;;;;;;;;;;;11.37;42.95;99162.53;5073373;28;20007;-85
2023/03/16 11:52:34;;;;;;;;;;;;;;;11.55;44.21;99159.38;5072640;28;19913;-87
2023/03/16 11:55:06;;;;;;;;;;;;;;;11.74;43.11;99161.53;5073323;28;19962;-84
2023/03/16 11:57:34;;;;;;;;;;;;;;;11.41;42.89;99164.19;5072383;28;19916;-86
2023/03/16 12:00:19;;;;;;;;;;;;;;;11.42;43.42;99169.44;5088854;28;20445;-84
2023/03/16 12:03:03;;;;;;;;;;;;;;;11.07;42.90;99165.06;5072599;28;19916;-84
2023/03/16 12:05:47;;;;;;;;;;;;;;;11.08;43.47;99162.41;5072742;28;19916;-84
2023/03/16 12:08:31;;;;;;;;;;;;;;;10.91;44.38;99176.00;5073112;28;19912;-86
2023/03/16 12:10:56;;;;;;;;;;;;;;;11.00;44.00;99180.22;5072409;28;19978;-85
2023/03/16 12:13:36;;;;;;;;;;;;;;;10.71;44.55;99173.00;5072724;28;20360;-84
2023/03/16 12:16:09;;;;;;;;;;;;;;;10.78;44.78;99176.34;5087909;28;19920;-87
2023/03/16 12:18:44;;;;;;;;;;;;;;;10.90;44.83;99179.53;5072592;28;20002;-85
2023/03/16 12:21:13;;;;;;;;;;;;;;;10.88;44.11;99180.50;5072515;28;19924;-84
2023/03/16 12:24:12;;;;;;;;;;;;;;;10.67;44.32;99173.97;5072668;28;20017;-89
2023/03/16 12:26:40;;;;;;;;;;;;;;;10.46;44.80;99184.13;5049824;28;19913;-85
2023/03/16 12:29:11;;;;;;;;;;;;;;;10.72;44.72;99178.25;5049317;28;19916;-85
2023/03/16 12:31:44;;;;;;;;;;;;;;;10.78;45.00;99177.22;5049080;28;20411;-86
2023/03/16 12:34:24;;;;;;;;;;;;;;;10.74;43.96;99180.84;5049344;28;20003;-85
2023/03/16 12:36:49;;;;;;;;;;;;;;;10.80;44.95;99188.59;5049980;28;19923;-85
2023/03/16 12:39:31;;;;;;;;;;;;;;;10.79;44.28;99189.50;5050499;28;19913;-87
2023/03/16 12:41:59;;;;;;;;;;;;;;;10.81;44.54;99181.56;5050269;28;19912;-89
2023/03/16 12:44:46;;;;;;;;;;;;;;;10.73;45.20;99195.78;5050899;28;19920;-84
2023/03/16 12:47:11;;;;;;;;;;;;;;;10.67;44.99;99189.78;5050399;28;19951;-85
2023/03/16 12:49:37;;;;;;;;;;;;;;;10.96;44.89;99196.16;5051102;28;19912;-86
2023/03/16 12:52:03;;;;;;;;;;;;;;;10.98;44.98;99197.84;5074819;28;19916;-87
2023/03/16 12:54:28;;;;;;;;;;;;;;;10.79;44.93;99207.97;5075136;28;19927;-91